sensor_id;sensor_type;location;lat;lon;timestamp;temperature;humidity
39677;DHT22;27789;50.840;4.386;2023-04-03T00:02:06;6.00;99.90
39677;DHT22;27789;50.840;4.386;2023-04-03T00:04:32;6.00;99.90
39677;DHT22;27789;50.840;4.386;2023-04-03T00:06:57;6.00;99.90
39677;DHT22;27789;50.840;4.386;2023-04-03T00:09:23;5.90;99.90
39677;DHT22;27789;50.840;4.386;2023-04-03T00:11:48;5.90;99.90
39677;DHT22;27789;50.840;4.386;2023-04-03T00:14:14;5.90;99.90
39677;DHT22;27789;50.840;4.386;2023-04-03T00:16:39;5.90;99.90
39677;DHT22;27789;50.840;4.386;2023-04-03T00:19:05;5.90;99.90
39677;DHT22;27789;50.840;4.386;2023-04-03T00:21:30;5.90;99.90
39677;DHT22;27789;50.840;4.386;2023-04-03T00:23:56;5.90;99.90
39677;DHT22;27789;50.840;4.386;2023-04-03T00:26:22;5.80;99.90
39677;DHT22;27789;50.840;4.386;2023-04-03T00:28:47;5.80;99.90
39677;DHT22;27789;50.840;4.386;2023-04-03T00:31:16;5.80;99.90
39677;DHT22;27789;50.840;4.386;2023-04-03T00:33:41;5.80;99.90
39677;DHT22;27789;50.840;4.386;2023-04-03T00:36:10;5.80;99.90
39677;DHT22;27789;50.840;4.386;2023-04-03T00:38:36;5.80;99.90
39677;DHT22;27789;50.840;4.386;2023-04-03T00:41:01;5.80;99.90
39677;DHT22;27789;50.840;4.386;2023-04-03T00:43:27;5.70;99.90
39677;DHT22;27789;50.840;4.386;2023-04-03T00:45:53;5.70;99.90
39677;DHT22;27789;50.840;4.386;2023-04-03T00:48:23;5.70;99.90
39677;DHT22;27789;50.840;4.386;2023-04-03T00:50:50;5.70;99.90
39677;DHT22;27789;50.840;4.386;2023-04-03T00:53:18;5.70;99.90
39677;DHT22;27789;50.840;4.386;2023-04-03T00:55:44;5.60;99.90
39677;DHT22;27789;50.840;4.386;2023-04-03T00:58:12;5.60;99.90
39677;DHT22;27789;50.840;4.386;2023-04-03T01:00:38;5.70;99.90
39677;DHT22;27789;50.840;4.386;2023-04-03T01:03:05;5.60;99.90
39677;DHT22;27789;50.840;4.386;2023-04-03T01:05:31;5.60;99.90
39677;DHT22;27789;50.840;4.386;2023-04-03T01:07:56;5.60;99.90
39677;DHT22;27789;50.840;4.386;2023-04-03T01:10:23;5.50;99.90
39677;DHT22;27789;50.840;4.386;2023-04-03T01:12:51;5.50;99.90
39677;DHT22;27789;50.840;4.386;2023-04-03T01:15:19;5.50;99.90
39677;DHT22;27789;50.840;4.386;2023-04-03T01:17:46;5.50;99.90
39677;DHT22;27789;50.840;4.386;2023-04-03T01:25:31;5.40;99.90
39677;DHT22;27789;50.840;4.386;2023-04-03T01:27:56;5.40;99.90
39677;DHT22;27789;50.840;4.386;2023-04-03T01:30:24;5.40;99.90
39677;DHT22;27789;50.840;4.386;2023-04-03T01:32:51;5.30;99.90
39677;DHT22;27789;50.840;4.386;2023-04-03T01:35:16;5.30;99.90
39677;DHT22;27789;50.840;4.386;2023-04-03T01:37:42;5.30;99.90
39677;DHT22;27789;50.840;4.386;2023-04-03T01:40:07;5.30;99.90
39677;DHT22;27789;50.840;4.386;2023-04-03T01:42:33;5.30;99.90
39677;DHT22;27789;50.840;4.386;2023-04-03T01:44:59;5.30;99.90
39677;DHT22;27789;50.840;4.386;2023-04-03T01:47:24;5.30;99.90
39677;DHT22;27789;50.840;4.386;2023-04-03T01:49:50;5.20;99.90
39677;DHT22;27789;50.840;4.386;2023-04-03T01:52:15;5.30;99.90
39677;DHT22;27789;50.840;4.386;2023-04-03T01:54:41;5.20;99.90
39677;DHT22;27789;50.840;4.386;2023-04-03T01:57:06;5.20;99.90
39677;DHT22;27789;50.840;4.386;2023-04-03T01:59:32;5.20;99.90
39677;DHT22;27789;50.840;4.386;2023-04-03T02:01:57;5.20;99.90
39677;DHT22;27789;50.840;4.386;2023-04-03T02:04:23;5.10;99.90
39677;DHT22;27789;50.840;4.386;2023-04-03T02:06:48;5.10;99.90
39677;DHT22;27789;50.840;4.386;2023-04-03T02:09:14;5.10;99.90
39677;DHT22;27789;50.840;4.386;2023-04-03T02:11:39;5.00;99.90
39677;DHT22;27789;50.840;4.386;2023-04-03T02:14:05;5.00;99.90
39677;DHT22;27789;50.840;4.386;2023-04-03T02:16:30;5.00;99.90
39677;DHT22;27789;50.840;4.386;2023-04-03T02:18:56;5.00;99.90
39677;DHT22;27789;50.840;4.386;2023-04-03T02:21:22;5.00;99.90
39677;DHT22;27789;50.840;4.386;2023-04-03T02:23:47;5.00;99.90
39677;DHT22;27789;50.840;4.386;2023-04-03T02:26:13;5.00;99.90
39677;DHT22;27789;50.840;4.386;2023-04-03T02:28:39;5.00;99.90
39677;DHT22;27789;50.840;4.386;2023-04-03T02:31:06;4.90;99.90
39677;DHT22;27789;50.840;4.386;2023-04-03T02:33:32;4.90;99.90
39677;DHT22;27789;50.840;4.386;2023-04-03T02:35:58;4.90;99.90
39677;DHT22;27789;50.840;4.386;2023-04-03T02:38:24;4.80;99.90
39677;DHT22;27789;50.840;4.386;2023-04-03T02:40:49;4.80;99.90
39677;DHT22;27789;50.840;4.386;2023-04-03T02:43:16;4.80;99.90
39677;DHT22;27789;50.840;4.386;2023-04-03T02:45:41;4.90;99.90
39677;DHT22;27789;50.840;4.386;2023-04-03T02:48:07;4.80;99.90
39677;DHT22;27789;50.840;4.386;2023-04-03T02:50:32;4.80;99.90
39677;DHT22;27789;50.840;4.386;2023-04-03T02:52:58;5.50;99.90
39677;DHT22;27789;50.840;4.386;2023-04-03T02:55:23;4.70;99.90
39677;DHT22;27789;50.840;4.386;2023-04-03T02:57:48;4.80;99.90
39677;DHT22;27789;50.840;4.386;2023-04-03T03:00:14;4.70;99.90
39677;DHT22;27789;50.840;4.386;2023-04-03T03:02:40;4.70;99.90
39677;DHT22;27789;50.840;4.386;2023-04-03T03:05:06;4.70;99.90
39677;DHT22;27789;50.840;4.386;2023-04-03T03:07:31;4.70;99.90
39677;DHT22;27789;50.840;4.386;2023-04-03T03:09:57;4.70;99.90
39677;DHT22;27789;50.840;4.386;2023-04-03T03:12:22;4.70;99.90
39677;DHT22;27789;50.840;4.386;2023-04-03T03:14:49;4.70;99.90
39677;DHT22;27789;50.840;4.386;2023-04-03T03:17:15;4.70;99.90
39677;DHT22;27789;50.840;4.386;2023-04-03T03:19:40;4.60;99.90
39677;DHT22;27789;50.840;4.386;2023-04-03T03:22:06;4.60;99.90
39677;DHT22;27789;50.840;4.386;2023-04-03T03:24:31;4.60;99.90
39677;DHT22;27789;50.840;4.386;2023-04-03T03:26:57;4.60;99.90
39677;DHT22;27789;50.840;4.386;2023-04-03T03:29:22;4.60;99.90
39677;DHT22;27789;50.840;4.386;2023-04-03T03:31:48;4.60;99.90
39677;DHT22;27789;50.840;4.386;2023-04-03T03:34:13;4.60;99.90
39677;DHT22;27789;50.840;4.386;2023-04-03T03:36:39;4.50;99.90
39677;DHT22;27789;50.840;4.386;2023-04-03T03:39:04;4.50;99.90
39677;DHT22;27789;50.840;4.386;2023-04-03T03:41:30;4.50;99.90
39677;DHT22;27789;50.840;4.386;2023-04-03T03:43:56;4.50;99.90
39677;DHT22;27789;50.840;4.386;2023-04-03T03:46:21;4.50;99.90
39677;DHT22;27789;50.840;4.386;2023-04-03T03:48:47;4.50;99.90
39677;DHT22;27789;50.840;4.386;2023-04-03T03:51:12;4.50;99.90
39677;DHT22;27789;50.840;4.386;2023-04-03T03:53:38;4.50;99.90
39677;DHT22;27789;50.840;4.386;2023-04-03T03:56:04;4.50;99.90
39677;DHT22;27789;50.840;4.386;2023-04-03T03:58:29;4.50;99.90
39677;DHT22;27789;50.840;4.386;2023-04-03T04:00:55;4.40;99.90
39677;DHT22;27789;50.840;4.386;2023-04-03T04:03:21;4.40;99.90
39677;DHT22;27789;50.840;4.386;2023-04-03T04:05:46;4.40;99.90
39677;DHT22;27789;50.840;4.386;2023-04-03T04:08:12;4.40;99.90
39677;DHT22;27789;50.840;4.386;2023-04-03T04:10:37;4.40;99.90
39677;DHT22;27789;50.840;4.386;2023-04-03T04:13:03;4.30;99.90
39677;DHT22;27789;50.840;4.386;2023-04-03T04:15:28;4.30;99.90
39677;DHT22;27789;50.840;4.386;2023-04-03T04:17:54;4.30;99.90
39677;DHT22;27789;50.840;4.386;2023-04-03T04:20:20;4.30;99.90
39677;DHT22;27789;50.840;4.386;2023-04-03T04:22:45;4.30;99.90
39677;DHT22;27789;50.840;4.386;2023-04-03T04:25:11;4.30;99.90
39677;DHT22;27789;50.840;4.386;2023-04-03T04:27:36;4.30;99.90
39677;DHT22;27789;50.840;4.386;2023-04-03T04:30:02;4.30;99.90
39677;DHT22;27789;50.840;4.386;2023-04-03T04:32:28;4.30;99.90
39677;DHT22;27789;50.840;4.386;2023-04-03T04:34:54;4.30;99.90
39677;DHT22;27789;50.840;4.386;2023-04-03T04:37:20;4.30;99.90
39677;DHT22;27789;50.840;4.386;2023-04-03T04:39:45;4.30;99.90
39677;DHT22;27789;50.840;4.386;2023-04-03T04:42:11;4.30;99.90
39677;DHT22;27789;50.840;4.386;2023-04-03T04:44:40;4.30;99.90
39677;DHT22;27789;50.840;4.386;2023-04-03T04:47:06;4.30;99.90
39677;DHT22;27789;50.840;4.386;2023-04-03T04:49:31;4.30;99.90
39677;DHT22;27789;50.840;4.386;2023-04-03T04:51:57;4.40;99.90
39677;DHT22;27789;50.840;4.386;2023-04-03T04:54:22;4.30;99.90
39677;DHT22;27789;50.840;4.386;2023-04-03T04:56:48;6.00;99.90
39677;DHT22;27789;50.840;4.386;2023-04-03T04:59:13;4.40;99.90
39677;DHT22;27789;50.840;4.386;2023-04-03T05:01:39;4.40;99.90
39677;DHT22;27789;50.840;4.386;2023-04-03T05:04:04;4.40;99.90
39677;DHT22;27789;50.840;4.386;2023-04-03T05:06:30;4.40;99.90
39677;DHT22;27789;50.840;4.386;2023-04-03T05:08:57;4.40;99.90
39677;DHT22;27789;50.840;4.386;2023-04-03T05:11:22;4.40;99.90
39677;DHT22;27789;50.840;4.386;2023-04-03T05:13:48;4.40;99.90
39677;DHT22;27789;50.840;4.386;2023-04-03T05:16:13;4.40;99.90
39677;DHT22;27789;50.840;4.386;2023-04-03T05:18:39;4.40;99.90
39677;DHT22;27789;50.840;4.386;2023-04-03T05:21:05;4.40;99.90
39677;DHT22;27789;50.840;4.386;2023-04-03T05:23:30;4.30;99.90
39677;DHT22;27789;50.840;4.386;2023-04-03T05:25:56;4.30;99.90
39677;DHT22;27789;50.840;4.386;2023-04-03T05:28:21;4.30;99.90
39677;DHT22;27789;50.840;4.386;2023-04-03T05:30:52;4.40;99.90
39677;DHT22;27789;50.840;4.386;2023-04-03T05:33:18;4.30;99.90
39677;DHT22;27789;50.840;4.386;2023-04-03T05:35:43;4.30;99.90
39677;DHT22;27789;50.840;4.386;2023-04-03T05:38:09;4.30;99.90
39677;DHT22;27789;50.840;4.386;2023-04-03T05:40:34;4.30;99.90
39677;DHT22;27789;50.840;4.386;2023-04-03T05:43:00;4.30;99.90
39677;DHT22;27789;50.840;4.386;2023-04-03T05:45:25;4.30;99.90
39677;DHT22;27789;50.840;4.386;2023-04-03T05:47:51;4.40;99.90
39677;DHT22;27789;50.840;4.386;2023-04-03T05:50:16;4.40;99.90
39677;DHT22;27789;50.840;4.386;2023-04-03T05:52:43;4.40;99.90
39677;DHT22;27789;50.840;4.386;2023-04-03T05:55:09;4.50;99.90
39677;DHT22;27789;50.840;4.386;2023-04-03T05:57:35;4.50;99.90
39677;DHT22;27789;50.840;4.386;2023-04-03T06:00:00;4.50;99.90
39677;DHT22;27789;50.840;4.386;2023-04-03T06:02:26;5.30;99.90
39677;DHT22;27789;50.840;4.386;2023-04-03T06:04:52;4.60;99.90
39677;DHT22;27789;50.840;4.386;2023-04-03T06:07:18;5.50;99.90
39677;DHT22;27789;50.840;4.386;2023-04-03T06:09:46;4.70;99.90
39677;DHT22;27789;50.840;4.386;2023-04-03T06:12:12;4.80;99.90
39677;DHT22;27789;50.840;4.386;2023-04-03T06:14:38;4.80;99.90
39677;DHT22;27789;50.840;4.386;2023-04-03T06:17:04;4.80;99.90
39677;DHT22;27789;50.840;4.386;2023-04-03T06:19:30;5.70;99.90
39677;DHT22;27789;50.840;4.386;2023-04-03T06:21:55;4.90;99.90
39677;DHT22;27789;50.840;4.386;2023-04-03T06:24:21;4.90;99.90
39677;DHT22;27789;50.840;4.386;2023-04-03T06:26:48;4.90;99.90
39677;DHT22;27789;50.840;4.386;2023-04-03T06:29:15;5.00;99.90
39677;DHT22;27789;50.840;4.386;2023-04-03T06:31:42;5.00;99.90
39677;DHT22;27789;50.840;4.386;2023-04-03T06:34:07;5.10;99.90
39677;DHT22;27789;50.840;4.386;2023-04-03T06:36:33;5.10;99.90
39677;DHT22;27789;50.840;4.386;2023-04-03T06:38:59;5.20;99.90
39677;DHT22;27789;50.840;4.386;2023-04-03T06:41:25;5.10;99.90
39677;DHT22;27789;50.840;4.386;2023-04-03T06:43:51;5.20;99.90
39677;DHT22;27789;50.840;4.386;2023-04-03T06:46:18;5.20;99.90
39677;DHT22;27789;50.840;4.386;2023-04-03T06:48:44;5.20;99.90
39677;DHT22;27789;50.840;4.386;2023-04-03T06:51:13;5.30;99.90
39677;DHT22;27789;50.840;4.386;2023-04-03T06:53:40;5.30;99.90
39677;DHT22;27789;50.840;4.386;2023-04-03T06:56:07;5.40;99.90
39677;DHT22;27789;50.840;4.386;2023-04-03T06:58:32;5.40;99.90
39677;DHT22;27789;50.840;4.386;2023-04-03T07:00:58;5.50;99.90
39677;DHT22;27789;50.840;4.386;2023-04-03T07:03:23;5.40;99.90
39677;DHT22;27789;50.840;4.386;2023-04-03T07:05:49;5.40;99.90
39677;DHT22;27789;50.840;4.386;2023-04-03T07:08:15;5.50;99.90
39677;DHT22;27789;50.840;4.386;2023-04-03T07:10:40;5.50;99.90
39677;DHT22;27789;50.840;4.386;2023-04-03T07:13:06;5.50;99.90
39677;DHT22;27789;50.840;4.386;2023-04-03T07:15:31;5.60;99.90
39677;DHT22;27789;50.840;4.386;2023-04-03T07:17:57;5.60;99.90
39677;DHT22;27789;50.840;4.386;2023-04-03T07:20:22;5.60;99.90
39677;DHT22;27789;50.840;4.386;2023-04-03T07:22:48;5.70;99.90
39677;DHT22;27789;50.840;4.386;2023-04-03T07:25:13;5.70;99.90
39677;DHT22;27789;50.840;4.386;2023-04-03T07:27:39;5.70;99.90
39677;DHT22;27789;50.840;4.386;2023-04-03T07:30:04;5.70;99.90
39677;DHT22;27789;50.840;4.386;2023-04-03T07:32:31;5.80;99.90
39677;DHT22;27789;50.840;4.386;2023-04-03T07:34:57;5.90;99.90
39677;DHT22;27789;50.840;4.386;2023-04-03T07:37:25;6.00;99.90
39677;DHT22;27789;50.840;4.386;2023-04-03T07:39:50;6.00;99.90
39677;DHT22;27789;50.840;4.386;2023-04-03T07:42:16;6.10;99.90
39677;DHT22;27789;50.840;4.386;2023-04-03T07:44:41;6.10;99.90
39677;DHT22;27789;50.840;4.386;2023-04-03T07:47:07;6.10;99.90
39677;DHT22;27789;50.840;4.386;2023-04-03T07:49:33;6.20;99.90
39677;DHT22;27789;50.840;4.386;2023-04-03T07:52:00;6.30;99.90
39677;DHT22;27789;50.840;4.386;2023-04-03T07:54:25;6.40;99.90
39677;DHT22;27789;50.840;4.386;2023-04-03T07:56:51;6.40;99.90
39677;DHT22;27789;50.840;4.386;2023-04-03T07:59:17;6.40;99.90
39677;DHT22;27789;50.840;4.386;2023-04-03T08:01:42;6.60;99.90
39677;DHT22;27789;50.840;4.386;2023-04-03T08:04:08;6.60;99.90
39677;DHT22;27789;50.840;4.386;2023-04-03T08:06:33;6.60;99.90
39677;DHT22;27789;50.840;4.386;2023-04-03T08:09:02;6.60;99.90
39677;DHT22;27789;50.840;4.386;2023-04-03T08:11:29;6.70;99.90
39677;DHT22;27789;50.840;4.386;2023-04-03T08:13:56;6.80;99.90
39677;DHT22;27789;50.840;4.386;2023-04-03T08:16:22;6.80;99.90
39677;DHT22;27789;50.840;4.386;2023-04-03T08:18:48;6.90;99.90
39677;DHT22;27789;50.840;4.386;2023-04-03T08:21:15;6.90;99.90
39677;DHT22;27789;50.840;4.386;2023-04-03T08:23:41;7.00;99.90
39677;DHT22;27789;50.840;4.386;2023-04-03T08:26:11;7.10;99.90
39677;DHT22;27789;50.840;4.386;2023-04-03T08:28:37;7.20;99.90
39677;DHT22;27789;50.840;4.386;2023-04-03T08:31:04;7.20;99.90
39677;DHT22;27789;50.840;4.386;2023-04-03T08:33:31;7.30;99.90
39677;DHT22;27789;50.840;4.386;2023-04-03T08:35:57;7.40;99.90
39677;DHT22;27789;50.840;4.386;2023-04-03T08:38:22;7.40;99.90
39677;DHT22;27789;50.840;4.386;2023-04-03T08:40:58;7.50;99.90
39677;DHT22;27789;50.840;4.386;2023-04-03T08:43:30;7.60;99.90
39677;DHT22;27789;50.840;4.386;2023-04-03T08:46:01;7.60;99.90
39677;DHT22;27789;50.840;4.386;2023-04-03T08:48:34;7.70;99.90
39677;DHT22;27789;50.840;4.386;2023-04-03T08:51:02;7.80;99.90
39677;DHT22;27789;50.840;4.386;2023-04-03T08:53:31;7.90;99.90
39677;DHT22;27789;50.840;4.386;2023-04-03T08:55:58;8.10;99.90
39677;DHT22;27789;50.840;4.386;2023-04-03T08:58:29;8.10;99.90
39677;DHT22;27789;50.840;4.386;2023-04-03T09:00:59;8.20;99.90
39677;DHT22;27789;50.840;4.386;2023-04-03T09:03:29;8.20;99.90
39677;DHT22;27789;50.840;4.386;2023-04-03T09:06:15;8.20;99.90
39677;DHT22;27789;50.840;4.386;2023-04-03T09:08:46;8.20;99.90
39677;DHT22;27789;50.840;4.386;2023-04-03T09:13:47;8.40;99.90
39677;DHT22;27789;50.840;4.386;2023-04-03T09:16:20;8.30;99.90
39677;DHT22;27789;50.840;4.386;2023-04-03T09:18:47;8.40;99.90
39677;DHT22;27789;50.840;4.386;2023-04-03T09:26:07;8.40;99.90
39677;DHT22;27789;50.840;4.386;2023-04-03T09:28:35;8.50;99.90
39677;DHT22;27789;50.840;4.386;2023-04-03T09:31:05;8.40;99.90
39677;DHT22;27789;50.840;4.386;2023-04-03T09:33:37;8.50;99.90
39677;DHT22;27789;50.840;4.386;2023-04-03T09:36:02;8.70;99.90
39677;DHT22;27789;50.840;4.386;2023-04-03T09:38:28;8.80;99.90
39677;DHT22;27789;50.840;4.386;2023-04-03T09:43:31;9.00;99.90
39677;DHT22;27789;50.840;4.386;2023-04-03T09:46:15;9.10;99.90
39677;DHT22;27789;50.840;4.386;2023-04-03T09:48:49;9.20;99.90
39677;DHT22;27789;50.840;4.386;2023-04-03T09:51:15;9.30;99.90
39677;DHT22;27789;50.840;4.386;2023-04-03T09:53:41;9.40;99.90
39677;DHT22;27789;50.840;4.386;2023-04-03T09:58:48;9.70;99.90
39677;DHT22;27789;50.840;4.386;2023-04-03T10:06:29;10.00;99.90
39677;DHT22;27789;50.840;4.386;2023-04-03T10:09:00;10.20;99.90
39677;DHT22;27789;50.840;4.386;2023-04-03T10:11:26;10.50;99.90
39677;DHT22;27789;50.840;4.386;2023-04-03T10:13:52;10.60;99.90
39677;DHT22;27789;50.840;4.386;2023-04-03T10:16:23;10.70;99.90
39677;DHT22;27789;50.840;4.386;2023-04-03T10:18:59;10.80;99.40
39677;DHT22;27789;50.840;4.386;2023-04-03T10:24:00;10.90;99.90
39677;DHT22;27789;50.840;4.386;2023-04-03T10:31:49;11.60;99.00
39677;DHT22;27789;50.840;4.386;2023-04-03T10:34:21;11.90;98.90
39677;DHT22;27789;50.840;4.386;2023-04-03T10:36:57;12.10;98.70
39677;DHT22;27789;50.840;4.386;2023-04-03T10:39:36;12.30;99.00
39677;DHT22;27789;50.840;4.386;2023-04-03T10:44:50;14.10;95.80
39677;DHT22;27789;50.840;4.386;2023-04-03T10:57:23;18.50;90.90
39677;DHT22;27789;50.840;4.386;2023-04-03T10:59:51;18.90;90.40
39677;DHT22;27789;50.840;4.386;2023-04-03T11:04:51;19.40;88.00
39677;DHT22;27789;50.840;4.386;2023-04-03T11:07:27;19.70;86.80
39677;DHT22;27789;50.840;4.386;2023-04-03T11:09:57;19.90;84.40
39677;DHT22;27789;50.840;4.386;2023-04-03T11:15:02;20.20;81.30
39677;DHT22;27789;50.840;4.386;2023-04-03T11:22:43;20.30;80.50
39677;DHT22;27789;50.840;4.386;2023-04-03T11:27:38;20.80;81.30
39677;DHT22;27789;50.840;4.386;2023-04-03T11:30:06;21.00;79.70
39677;DHT22;27789;50.840;4.386;2023-04-03T11:32:39;21.00;80.60
39677;DHT22;27789;50.840;4.386;2023-04-03T11:35:08;21.10;80.80
39677;DHT22;27789;50.840;4.386;2023-04-03T11:37:36;21.10;80.80
39677;DHT22;27789;50.840;4.386;2023-04-03T11:40:08;21.10;81.20
39677;DHT22;27789;50.840;4.386;2023-04-03T11:43:04;21.30;82.50
39677;DHT22;27789;50.840;4.386;2023-04-03T11:45:52;21.70;81.80
39677;DHT22;27789;50.840;4.386;2023-04-03T11:50:59;21.80;80.10
39677;DHT22;27789;50.840;4.386;2023-04-03T11:53:32;21.80;80.40
39677;DHT22;27789;50.840;4.386;2023-04-03T11:55:58;21.90;80.20
39677;DHT22;27789;50.840;4.386;2023-04-03T11:58:34;21.30;78.10
39677;DHT22;27789;50.840;4.386;2023-04-03T12:01:01;21.50;78.60
39677;DHT22;27789;50.840;4.386;2023-04-03T12:13:33;22.40;76.90
39677;DHT22;27789;50.840;4.386;2023-04-03T12:15:58;22.30;76.10
39677;DHT22;27789;50.840;4.386;2023-04-03T12:21:04;22.40;77.00
39677;DHT22;27789;50.840;4.386;2023-04-03T12:23:33;22.70;75.70
39677;DHT22;27789;50.840;4.386;2023-04-03T12:26:21;22.80;75.80
39677;DHT22;27789;50.840;4.386;2023-04-03T12:28:48;23.30;74.80
39677;DHT22;27789;50.840;4.386;2023-04-03T12:31:14;23.40;73.50
39677;DHT22;27789;50.840;4.386;2023-04-03T12:39:21;23.10;71.70
39677;DHT22;27789;50.840;4.386;2023-04-03T12:47:08;23.50;70.90
39677;DHT22;27789;50.840;4.386;2023-04-03T12:49:42;23.00;70.80
39677;DHT22;27789;50.840;4.386;2023-04-03T12:54:45;23.50;70.90
39677;DHT22;27789;50.840;4.386;2023-04-03T12:59:48;23.60;70.50
39677;DHT22;27789;50.840;4.386;2023-04-03T13:04:51;24.00;69.70
39677;DHT22;27789;50.840;4.386;2023-04-03T13:07:28;24.20;70.10
39677;DHT22;27789;50.840;4.386;2023-04-03T13:09:56;24.30;68.90
39677;DHT22;27789;50.840;4.386;2023-04-03T13:12:25;24.30;68.30
39677;DHT22;27789;50.840;4.386;2023-04-03T13:14:54;24.10;67.90
39677;DHT22;27789;50.840;4.386;2023-04-03T13:17:20;23.60;68.40
39677;DHT22;27789;50.840;4.386;2023-04-03T13:19:46;23.60;67.70
39677;DHT22;27789;50.840;4.386;2023-04-03T13:22:22;23.90;68.40
39677;DHT22;27789;50.840;4.386;2023-04-03T13:24:49;24.10;67.80
39677;DHT22;27789;50.840;4.386;2023-04-03T13:27:15;24.20;66.90
39677;DHT22;27789;50.840;4.386;2023-04-03T13:29:42;23.90;66.40
39677;DHT22;27789;50.840;4.386;2023-04-03T13:32:13;23.40;67.00
39677;DHT22;27789;50.840;4.386;2023-04-03T13:34:42;22.70;67.70
39677;DHT22;27789;50.840;4.386;2023-04-03T13:39:45;20.80;68.90
39677;DHT22;27789;50.840;4.386;2023-04-03T13:42:21;20.90;69.50
39677;DHT22;27789;50.840;4.386;2023-04-03T13:44:48;20.80;69.60
39677;DHT22;27789;50.840;4.386;2023-04-03T13:47:16;21.00;68.30
39677;DHT22;27789;50.840;4.386;2023-04-03T13:49:42;20.90;67.90
39677;DHT22;27789;50.840;4.386;2023-04-03T13:54:45;20.80;68.90
39677;DHT22;27789;50.840;4.386;2023-04-03T13:57:14;20.20;70.90
39677;DHT22;27789;50.840;4.386;2023-04-03T13:59:41;19.60;72.00
39677;DHT22;27789;50.840;4.386;2023-04-03T14:07:13;18.00;72.20
39677;DHT22;27789;50.840;4.386;2023-04-03T14:09:39;17.60;72.90
39677;DHT22;27789;50.840;4.386;2023-04-03T14:12:11;17.40;73.20
39677;DHT22;27789;50.840;4.386;2023-04-03T14:14:37;17.20;74.20
39677;DHT22;27789;50.840;4.386;2023-04-03T14:17:10;16.70;74.40
39677;DHT22;27789;50.840;4.386;2023-04-03T14:19:38;16.30;74.00
39677;DHT22;27789;50.840;4.386;2023-04-03T14:22:14;16.00;75.00
39677;DHT22;27789;50.840;4.386;2023-04-03T14:24:40;15.80;75.20
39677;DHT22;27789;50.840;4.386;2023-04-03T14:27:11;15.70;75.50
39677;DHT22;27789;50.840;4.386;2023-04-03T14:29:40;15.70;75.50
39677;DHT22;27789;50.840;4.386;2023-04-03T14:32:10;15.60;75.50
39677;DHT22;27789;50.840;4.386;2023-04-03T14:34:36;15.50;76.70
39677;DHT22;27789;50.840;4.386;2023-04-03T14:37:01;15.50;75.50
39677;DHT22;27789;50.840;4.386;2023-04-03T14:39:27;15.50;76.10
39677;DHT22;27789;50.840;4.386;2023-04-03T14:41:52;15.60;75.20
39677;DHT22;27789;50.840;4.386;2023-04-03T14:44:18;15.70;75.90
39677;DHT22;27789;50.840;4.386;2023-04-03T14:46:43;15.80;75.00
39677;DHT22;27789;50.840;4.386;2023-04-03T14:49:16;15.80;75.40
39677;DHT22;27789;50.840;4.386;2023-04-03T14:51:43;15.80;75.50
39677;DHT22;27789;50.840;4.386;2023-04-03T14:54:15;15.70;75.60
39677;DHT22;27789;50.840;4.386;2023-04-03T14:56:41;15.80;76.00
39677;DHT22;27789;50.840;4.386;2023-04-03T14:59:11;15.90;76.20
39677;DHT22;27789;50.840;4.386;2023-04-03T15:01:36;15.90;76.30
39677;DHT22;27789;50.840;4.386;2023-04-03T15:04:05;15.90;76.10
39677;DHT22;27789;50.840;4.386;2023-04-03T15:06:31;15.80;76.60
39677;DHT22;27789;50.840;4.386;2023-04-03T15:08:57;15.70;76.50
39677;DHT22;27789;50.840;4.386;2023-04-03T15:11:22;15.70;77.20
39677;DHT22;27789;50.840;4.386;2023-04-03T15:13:48;15.80;76.60
39677;DHT22;27789;50.840;4.386;2023-04-03T15:16:17;15.80;75.60
39677;DHT22;27789;50.840;4.386;2023-04-03T15:18:44;15.80;75.20
39677;DHT22;27789;50.840;4.386;2023-04-03T15:21:10;15.90;75.10
39677;DHT22;27789;50.840;4.386;2023-04-03T15:23:36;16.10;74.80
39677;DHT22;27789;50.840;4.386;2023-04-03T15:26:01;16.30;74.20
39677;DHT22;27789;50.840;4.386;2023-04-03T15:30:55;16.40;74.20
39677;DHT22;27789;50.840;4.386;2023-04-03T15:33:21;16.40;74.00
39677;DHT22;27789;50.840;4.386;2023-04-03T15:35:47;16.30;74.30
39677;DHT22;27789;50.840;4.386;2023-04-03T15:38:12;16.10;74.60
39677;DHT22;27789;50.840;4.386;2023-04-03T15:40:38;15.80;74.50
39677;DHT22;27789;50.840;4.386;2023-04-03T15:43:04;15.70;74.60
39677;DHT22;27789;50.840;4.386;2023-04-03T15:45:30;15.50;74.50
39677;DHT22;27789;50.840;4.386;2023-04-03T15:47:56;15.50;75.40
39677;DHT22;27789;50.840;4.386;2023-04-03T15:50:21;15.50;74.10
39677;DHT22;27789;50.840;4.386;2023-04-03T15:52:49;15.20;74.00
39677;DHT22;27789;50.840;4.386;2023-04-03T15:55:22;15.00;75.60
39677;DHT22;27789;50.840;4.386;2023-04-03T15:57:48;15.00;75.80
39677;DHT22;27789;50.840;4.386;2023-04-03T16:00:13;15.20;76.50
39677;DHT22;27789;50.840;4.386;2023-04-03T16:02:39;15.60;76.50
39677;DHT22;27789;50.840;4.386;2023-04-03T16:05:05;16.20;76.40
39677;DHT22;27789;50.840;4.386;2023-04-03T16:07:31;17.30;75.70
39677;DHT22;27789;50.840;4.386;2023-04-03T16:09:57;18.10;75.20
39677;DHT22;27789;50.840;4.386;2023-04-03T16:12:22;19.00;74.90
39677;DHT22;27789;50.840;4.386;2023-04-03T16:14:48;19.70;74.50
39677;DHT22;27789;50.840;4.386;2023-04-03T16:17:13;20.10;73.30
39677;DHT22;27789;50.840;4.386;2023-04-03T16:19:39;20.40;73.00
39677;DHT22;27789;50.840;4.386;2023-04-03T16:22:04;20.40;73.20
39677;DHT22;27789;50.840;4.386;2023-04-03T16:24:30;20.40;73.30
39677;DHT22;27789;50.840;4.386;2023-04-03T16:26:57;19.20;73.60
39677;DHT22;27789;50.840;4.386;2023-04-03T16:29:23;17.90;75.10
39677;DHT22;27789;50.840;4.386;2023-04-03T16:31:48;16.80;76.40
39677;DHT22;27789;50.840;4.386;2023-04-03T16:34:14;16.00;77.40
39677;DHT22;27789;50.840;4.386;2023-04-03T16:36:41;15.40;78.30
39677;DHT22;27789;50.840;4.386;2023-04-03T16:39:06;14.90;79.70
39677;DHT22;27789;50.840;4.386;2023-04-03T16:41:34;14.70;79.50
39677;DHT22;27789;50.840;4.386;2023-04-03T16:44:00;14.30;80.30
39677;DHT22;27789;50.840;4.386;2023-04-03T16:46:25;14.10;80.90
39677;DHT22;27789;50.840;4.386;2023-04-03T16:48:51;13.90;81.60
39677;DHT22;27789;50.840;4.386;2023-04-03T16:51:16;13.70;82.10
39677;DHT22;27789;50.840;4.386;2023-04-03T16:53:42;13.40;82.90
39677;DHT22;27789;50.840;4.386;2023-04-03T16:56:08;13.30;83.00
39677;DHT22;27789;50.840;4.386;2023-04-03T16:58:33;13.10;83.50
39677;DHT22;27789;50.840;4.386;2023-04-03T17:00:59;13.00;84.00
39677;DHT22;27789;50.840;4.386;2023-04-03T17:03:33;12.90;84.80
39677;DHT22;27789;50.840;4.386;2023-04-03T17:05:58;12.80;85.40
39677;DHT22;27789;50.840;4.386;2023-04-03T17:08:24;12.60;85.30
39677;DHT22;27789;50.840;4.386;2023-04-03T17:10:49;12.40;85.10
39677;DHT22;27789;50.840;4.386;2023-04-03T17:13:17;12.30;85.50
39677;DHT22;27789;50.840;4.386;2023-04-03T17:15:42;12.30;86.20
39677;DHT22;27789;50.840;4.386;2023-04-03T17:18:08;12.20;86.20
39677;DHT22;27789;50.840;4.386;2023-04-03T17:20:33;12.10;86.90
39677;DHT22;27789;50.840;4.386;2023-04-03T17:23:01;12.00;87.60